-----------------------------

42^ Morgnano - Spoleto - Morgnano - km 16,400
Morgnano (Pg) - 08.12.2018

foto by G. Rustici

Ordine d'arrivo maschile -  Km 16,400
Clas. Cognome Nome A Nascita SocietÓ Categ. Tempi Media
1░ Petrini Daniele 1984 #Iloverun Athletic Terni Amat-m 0.58.13  3,33
2░ Fiorani Andrea 1994 Atl. Winner Foligno Amat-m 0.59.13  3,37
3░ Giacomelli Matteo 1986 Runners Sangemini Amat-m 0.59.51  3,39
4░ Apostoli Proietti Andrea 1983 Atl. Spoleto 2010 Sm-35 1.01.54  3,46
5░ Gemma Fedrico 1980 G.t.a. Crema Sm-35 1.01.55  3,47
6░ Rapisarda Francesco 1984 Pod. Lino Spagnoli  Amat-m 1.02.27  3,48
7░ Di Stefano Silvio 1970 C.d.p. Circ.Dip. Perugia Sm-45 1.02.53  3,50
8░ Cocca Vincenzo 1974 Atl. Avis Perugia Sm-40 1.03.24  3,52
9░ Cuiti Stefano 1973 C.d.p. Circ.Dip. Perugia Sm-45 1.04.00  3,54
10░ Pinoca Fabio 1978 Runners Sangemini Sm-40 1.04.03  3,54
11░ Vincenzoni Simone 1973 Ternana Marathon Club Sm-45 1.04.09  3,55
12░ Cresta Tommaso 1990 Run Card Amat-m 1.04.30  3,56
13░ Bigarini Marco 1971 Atl. Avis Magione Sm-45 1.05.27  3,59
14░ Procacci Mario 1966 Atl. Taino  Sm-50 1.05.50  4,01
15░ Fagioli Roberto 1969 Atl. Spoleto 2010 Sm-45 1.06.18  4,03
16░ Saccaperni Mirco 1983 Atl. Spoleto 2010 Sm-35 1.06.42  4,04
17░ Tinelli Fabrizio 1968 Atl. Spoleto 2010 Sm-50 1.06.51  4,05
18░ Marioli Stefano 1963 C.d.p. Circ.Dip. Perugia Sm-55 1.06.54  4,05
19░ Caroselli Cristiano 1976 Runners Sangemini Sm-40 1.07.25  4,07
20░ Pallucco Giorgio 1972 Forti e Veloci Sm-45 1.08.14  4,10
21░ Cavallucci Marco 1967 Runners Sangemini Sm-50 1.08.25  4,10
22░ Castellini Gianni 1969 Pod. Lino Spagnoli  Sm-45 1.08.29  4,11
23░ Giannoni Claudio 1961 C.d.p. Circ.Dip. Perugia Sm-55 1.08.32  4,11
24░ Bosco Sabino 1966 Assisi Runners Sm-50 1.08.33  4,11
25░ Pirilli Andrea 1969 Dream Runners Pg Sm-45 1.08.53  4,12
26░ Costanzi Enrico 1978 Runners Sangemini Sm-40 1.09.03  4,13
27░ Mencuccini Paolo 1983 Atl. Avis Magione Sm-35 1.09.08  4,13
28░ Trovati Luca 1983 Atl. Avis Magione Sm-35 1.09.17  4,13
29░ Calamita Paolo 1972 Atl. Avis Narni Tr Sm-45 1.09.25  4,14
30░ Pallotta Roberto 1962 Atl. Winner Foligno Sm-55 1.09.46  4,15
31░ Allegrucci Fabio 1974 Gubbio Runners Pg Sm-40 1.09.58  4,16
32░ Caporaletti Francesco 1985 Atl. Il Colle Pg Amat-m 1.10.02  4,16
33░ Covarelli Mauro 1959 Atl. Avis Perugia Sm-55 1.10.06  4,16
34░ Perugini Stefano 1980 Atl. Spoleto 2010 Sm-35 1.10.09  4,17
35░ Bertolini Ademaro 1956 C.d.p. Circ.Dip. Perugia Sm-60 1.10.12  4,17
36░ Rossi Mirko 1976 Atl. Winner Foligno Sm-40 1.10.19  4,17
37░ Fiori Simone 1982 Runners Sangemini Sm-35 1.10.28  4,18
38░ Marano Fabio 1976 Atl. Winner Foligno Sm-40 1.10.33  4,18
39░ Muti Massimiliano 1968 Atl. Trevi Pg Sm-50 1.10.35  4,18
40░ Silvestri Alessandro 1975 Atl. Winner Foligno Sm-40 1.10.39  4,18
41░ Fortunati Danilo 1964 Atl. Spoleto 2010 Sm-50 1.10.54  4,19
42░ Fazi Mauro 1971 Atl. Taino  Sm-45 1.11.05  4,20
43░ Boccali Mirco 1974 G.s. Aperdifiato Sm-40 1.11.08  4,20
44░ Balzano Michele 1970 Amat. Podistica Terni Sm-45 1.11.18  4,21
45░ Angeluzzi Massimo 1963 Athletic Lab Amelia Sm-55 1.11.28  4,21
46░ De Santis Michele 1986 Amat. Podistica Terni Amat-m 1.11.42  4,22
47░ Fossatelli Fabrizio 1969 #Iloverun Athletic Terni Sm-45 1.11.45  4,22
48░ Lacchi Massimiliano 1976 Atl. Taino  Sm-40 1.11.55  4,23
49░ Perna Vincenzo 1986 Assisi Runners Amat-m 1.12.04  4,24
50░ Bartolini Lorenzo 1993 Pod. Volumnia Pg Amat-m 1.12.42  4,26
51░ Lince Mirno 1972 C.d.p. Circ.Dip. Perugia Sm-45 1.12.47  4,26
52░ Garofoli Paolo 1961 Atl. Taino  Sm-55 1.12.53  4,27
53░ Passagrilli Gabriele 1978 Ternana Marathon Club Sm-40 1.12.59  4,27
54░ Iaiani Giuseppe 1961 Uisp Foligno Sm-55 1.13.13  4,28
55░ Proietti Bocchini Pierluca 1972 Atl. Umbertide Sm-45 1.13.26  4,29
56░ Fioriti Emanuele 1985 G.s. Aperdifiato  Amat-m 1.13.32  4,29
57░ Pangrazi Stefano 1963 Pod. Avis Terni Sm-55 1.13.47  4,30
58░ Montecchiani Niko 1976 Pod. Myricae Terni Sm-40 1.14.03  4,31
59░ Rondini Gabriele 1978 Atl. Avis Magione Sm-40 1.14.09  4,31
60░ Carlini Marco 1977 Atl. Spoleto 2010 Sm-40 1.14.15  4,32
61░ Giordano Lorenzo 1978 Amat. Podistica Terni Sm-40 1.14.22  4,32
62░ Cipiccia Andrea 1971 Pod. Myricae Terni Sm-45 1.14.27  4,32
63░ Bisogni Domenico 1966 Atl. Winner Foligno Sm-50 1.14.35  4,33
64░ Rossini Gianfranco 1962 C.d.p. Circ.Dip. Perugia Sm-55 1.14.41  4,33
65░ Rondini Fabrizio 1964 Atl. Umbertide Sm-50 1.14.56  4,34
66░ Vetturini Marco 1970 Assisi Runners Sm-45 1.14.57  4,34
67░ Patacca Francesco 1980 Atl. Il Colle Pg Sm-35 1.15.18  4,35
68░ Pinelli Enrico 1960 Amat. Podistica Terni Sm-55 1.15.22  4,36
69░ Falaschi Daniele 1971 C.d.p. Circ.Dip. Perugia Sm-45 1.15.29  4,36
70░ Valeri Roberto 1967 Amat. Podistica Terni Sm-50 1.15.30  4,36
71░ Bucchini Luca 1968 Forti e Veloci Sm-50 1.15.40  4,37
72░ Martini Roberto 1969 A Quelli Che Lo Sport Sm-45 1.15.52  4,38
73░ Pacetti Piero 1968 #Iloverun Athletic Terni Sm-50 1.16.14  4,39
74░ Ercolani Eduardo 1986 Pod. Volumnia Pg Amat-m 1.16.21  4,39
75░ Pirozzi Giovanni 1974 Pod. Avis Terni Sm-40 1.16.44  4,41
76░ Bartocci Andrea 1971 Atl. Spoleto 2010 Sm-45 1.16.54  4,41
77░ Nebiolo Alfredo 1966 Assisi Runners Sm-50 1.17.17  4,43
78░ Corsalini Marco 1985 Pod. Avis Terni Amat-m 1.17.23  4,43
79░ Angeli Arrigo 1972 Atl. Winner Foligno Sm-45 1.17.25  4,43
80░ Burzacca Giulio 1977 Atl. Taino  Sm-40 1.17.28  4,43
81░ Langarelli Sellani Daniele 1981 Atl. Winner Foligno Sm-35 1.17.29  4,43
82░ Macchi Roberto 1975 Amat. Podistica Terni Sm-40 1.17.42  4,44
83░ Aiello Luca 1972 L'Unatici Ellera Corciano Sm-45 1.17.48  4,45
84░ Genovese Giudo 1966 L'Unatici Ellera Corciano Sm-50 1.17.49  4,45
85░ Siroti G. Luca 1962 Atl. Spoleto 2010 Sm-55 1.18.07  4,46
86░ Romiti Alessandro 1971 Runners Sangemini Sm-45 1.18.09  4,46
87░ Nappi Enrico 1958 C.d.p. Circ.Dip. Perugia Sm-60 1.18.14  4,46
88░ Tartaglia Luigi 1971 Runners Sangemini Sm-45 1.18.26  4,47
89░ Filugelli Giannetto 1960 Atl. Capanne Pg Sm-55 1.18.27  4,47
90░ Giombetti Gabriele 1963 Pietralunga Runners Sm-55 1.18.30  4,47
91░ Tombolesi Marco 1960 G.s. Aperdifiato  Sm-55 1.18.35  4,48
92░ Poggianti Francesco 1963 C.d.p. Circ.Dip. Perugia Sm-55 1.18.42  4,48
93░ Gagliesi Gianni 1964 Atl. Il Colle Pg Sm-50 1.18.44  4,48
94░ Salvatori Dario 1963 Atl. Il Colle Pg Sm-55 1.18.58  4,49
95░ Avenoso Massimo 1968 Pod. Lino Spagnoli  Sm-50 1.19.01  4,49
96░ Guercini Bruno 1949 Atl. Il Colle Pg Sm-65 1.19.03  4,49
97░ Venturini Maurizio 1956 Atl. Spoleto 2010 Sm-60 1.19.05  4,49
98░ Peroni Enrico 1956 Atl. Spoleto 2010 Sm-60 1.19.16  4,50
99░ Tromboni Fabrizio 1972 Atl. Avis Narni Tr Sm-45 1.19.25  4,51
100░ Bea Maurizio 1977 Atl. Winner Foligno Sm-40 1.19.35  4,51
101░ Aiello Marco 1963 Atl. Avis Narni Tr Sm-55 1.19.41  4,52
102░ Vandini Samuele 1972 Pod. Lino Spagnoli Sm-45 1.19.46  4,52
103░ Atzori Sandro 1961 Atl. Winner Foligno Sm-55 1.20.04  4,53
104░ Melis Massimiliano 1974 Atl. Spoleto 2010 Sm-40 1.20.12  4,53
105░ Polticchia Roberto 1964 C.d.p. Circ.Dip. Perugia Sm-50 1.20.18  4,54
106░ Margreth Paolo 1967 C.d.p. Circ.Dip. Perugia Sm-50 1.20.31  4,55
107░ Traballoni Marco 1967 C.d.p. Circ.Dip. Perugia Sm-50 1.20.32  4,55
108░ Porchetti Fabrizio 1956 Pod. Myricae Terni Sm-60 1.20.40  4,55
109░ Pergolari Danilo 1968 Atl. Winner Foligno Sm-50 1.20.50  4,56
110░ Batini Andrea 1973 A Quelli Che Lo Sport Sm-45 1.21.06  4,57
111░ Bisonni Roberto 1960 Pod. Avis Terni Sm-55 1.21.32  4,58
112░ Ricci Mirko 1971 Marathon C. Castello Sm-45 1.22.08  5,00
113░ Leonardi Roberto 1974 Marathon C. Castello Sm-40 1.22.09  5,01
114░ Fabi Andrea 1973 C.d.p. Circ.Dip. Perugia Sm-45 1.22.18  5,01
115░ Bruzzoli Danilo 1968 Atl. Spoleto 2010 Sm-50 1.22.19  5,01
116░ Placidi Roberto 1967 Atl. Winner Foligno Sm-50 1.22.31  5,02
117░ Boriosi Luca 1985 G.s. Aperdifiato  Amat-m 1.22.39  5,02
118░ Palmucci Riccardo 1960 Bancari Romani Sm-55 1.22.41  5,02
119░ Tomassoni Luca 1970 Atl. Il Colle Pg Sm-45 1.22.46  5,03
120░ Malizia Fabio 1989 Sport Eventi Cortona Amat-m 1.22.49  5,03
121░ Pasqualini Fabrizio 1958 Atl. Il Colle Pg Sm-60 1.23.09  5,04
122░ Napoli Pasqualino 1973 Runners Sangemini Sm-45 1.23.10  5,04
123░ Mercantini Franco 1965 #Iloverun Athletic Terni Sm-50 1.23.11  5,04
124░ Sguilla Enzo 1951 C.d.p. Circ.Dip. Perugia Sm-65 1.23.14  5,05
125░ Peducci Maurizio 1950 C.d.p. Circ.Dip. Perugia Sm-65 1.23.19  5,05
126░ Roych Ennio 1966 Atl. Winner Foligno Sm-50 1.23.22  5,05
127░ Severini David 1964 Atl. Winner Foligno Sm-50 1.24.07  5,08
128░ Cuppoloni Lorenzo 1976 G.s. Aperdifiato Sm-40 1.24.28  5,09
129░ Ricci Flavio 1968 Atl. Winner Foligno Sm-50 1.24.51  5,10
130░ Cerolini Francesco 1981 Pietralunga Runners Sm-35 1.25.10  5,12
131░ Briguori Giacomo 1959 Atl. Spoleto 2010 Sm-55 1.25.25  5,12
132░ Menconi Antonello 1967 L'Unatici Ellera Corciano Sm-50 1.25.34  5,13
133░ Cini Maurizio 1960 C.d.p. Circ.Dip. Perugia Sm-55 1.25.38  5,13
134░ Bottoloni Raffaele 1960 Pod. Volumnia Pg Sm-55 1.25.49  5,14
135░ Rosabella Marco 1985 G.s. Aperdifiato  Amat-m 1.26.11  5,15
136░ Cesaretti Federico 1973 Atl. Spoleto 2010 Sm-45 1.26.25  5,16
137░ Rubini Alessandro 1966 Ternana Marathon Club Sm-50 1.26.49  5,18
138░ Ranchella Fabio 1967 C.d.p. Circ.Dip. Perugia Sm-50 1.26.52  5,18
139░ Carta Carlo 1974 Run Card Sm-40 1.27.16  5,19
140░ Natalicchi Cesare 1956 Pod. Avis Deruta Sm-60 1.27.22  5,20
141░ Bocchini Maurizio 1969 C.d.p. Circ.Dip. Perugia Sm-45 1.27.25  5,20
142░ Grillo Giacomo 1958 Amat. Podistica Terni Sm-60 1.28.21  5,23
143░ Metelli Gianluca 1965 Amat. Podistica Terni Sm-50 1.28.22  5,23
144░ Liberti Renzo 1950 C.d.p. Circ.Dip. Perugia Sm-65 1.29.32  5,28
145░ Rondelli Dante Rodolfo 1967 Atl. Taino  Sm-50 1.29.41  5,28
146░ Cosimi Angelo 1949 Atl. Taino  Sm-65 1.31.27  5,35
147░ Fiordi Fabio 1963 C.d.p. Circ.Dip. Perugia Sm-55 1.32.26  5,38
148░ Piccolo Cosimo 1943 Atl. Winner Foligno Sm-65 1.32.27  5,38
149░ Casagrande Davide 1985 G.s. Aperdifiato  Amat-m 1.32.53  5,40
150░ Melillo Lucio 1977 Atleticom Sm-40 1.34.11  5,45
151░ Taddei Franco 1951 Atl. Spoleto 2010 Sm-65 1.43.48  6,20
152░ Orsingher Enzo 1946 Atl. Vita Roma Sm-65 1.46.19  6,29
153░ Montanari Nino 1950 Forti e Veloci Sm-65 1.46.37  6,30
Ordine d'arrivo femminile  Km 16,400
Clas. Cognome Nome A Nascita SocietÓ Categ. Tempi Media
1^ Garinei Paola 1972 Atl. Avis Perugia Over/40 1.07.33  4,07
2^ Palozzi Tania 1975 #Iloverun Athletic Terni Over/40 1.08.36  4,11
3^ Cardarelli Fabiola 1973 Smacliberty Over/40 1.09.04  4,13
4^ Caporicci Laura 1979 Assisi Runners Under/40 1.11.17  4,21
5^ Varasano Emanuela 1975 Atl. Capanne Pg Over/40 1.11.31  4,22
6^ Lacrimini Patrizia 1967 Marathon C. Castello Over/40 1.12.51  4,27
7^ Raggi Eleonora 1979 Ternana Marathon Club Under/40 1.12.58  4,27
8^ Meniconi Maria Luisa 1968 Atl. Winner Foligno Over/40 1.14.01  4,31
9^ Della Bina Giulia 1989 Assisi Runners Under/40 1.15.55  4,38
10^ Occhineri Paola 1969 Marathon C. Castello Over/40 1.17.35  4,44
11^ Ottobretti Elisa 1984 Atl. Trevi Pg Under/40 1.17.58  4,45
12^ Paolantoni Elisa 1980 Amat. Podistica Terni Under/40 1.18.31  4,47
13^ Lancetti Romina 1976 Assisi Runners Over/40 1.19.31  4,51
14^ Muzi Eleonora 1974 Atl. Winner Foligno Over/40 1.19.51  4,52
15^ Dascalu Mirela Laura 1975 Atl. Umbertide Over/40 1.20.10  4,53
16^ Tribbioli Silvia 1971 C.d.p. Circ.Dip. Perugia Over/40 1.20.17  4,54
17^ Battelli Daniela 1960 Pod. Carsulae Tr Over/40 1.21.00  4,56
18^ Properzi Simona 1970 Atl. Winner Foligno Over/40 1.21.31  4,58
19^ Mattoni Luisa 1974 Pod. Lino Spagnoli  Over/40 1.21.58  5,00
20^ Gerbi Erika 1974 Atl. Il Colle Pg Over/40 1.23.15  5,05
21^ Antimiani Lisa 1971 Runners Sangemini Over/40 1.23.50  5,07
22^ Zerini Elisabetta 1980 Runners Sangemini Under/40 1.23.51  5,07
23^ Cozzari Marianna 1977 C.d.p. Circ.Dip. Perugia Over/40 1.25.21  5,12
24^ Falchetti Anna Maria 1966 L'Unatici Ellera Corciano Over/40 1.25.48  5,14
25^ Asciutti Angela 1967 Ternana Marathon Club Over/40 1.26.48  5,18
26^ Cruciani Anna Rita 1968 C.d.p. Circ.Dip. Perugia Over/40 1.26.51  5,18
27^ Palmisano Giuseppina 1986 G.s. Aperdifiato  Under/40 1.27.21  5,20
28^ Ciotti Donatella 1979 Ternana Marathon Club Under/40 1.30.46  5,32
29^ Palleri Tiziana 1969 C.d.p. Circ.Dip. Perugia Over/40 1.32.48  5,40
30^ Bellucci Eleonora 1974 C.d.p. Circ.Dip. Perugia Over/40 1.32.49  5,40
31^ Mannucchi Silvia 1979 Atl. Winner Foligno Under/40 1.33.42  5,43
32^ Cenci Daniela 1982 Atl. Il Colle Pg Under/40 1.35.28  5,49

 

 

---------------

---------------

 

------------------------------

------------------------------